ITY826 LIMC-EDDF
Flight info
| Callsign | ITY826 |
|---|---|
| Flight time | 1h 8m |
| Altitude | 32000 |
| Route | PEPAG DCT ABESI N851 UTAVO DCT ROLSA DCT LADOL T163 EMPAX EMPAX5B |
| Aircraft | A320/M-SDE3FGHIRWY/LB1 |
Departure
| Time | 2026-04-16 21:30 |
|---|---|
| Airport | Milan Malpensa International Airport (LIMC) |
Arrival
| Time | 2026-04-16 22:38 |
|---|---|
| Airport | Frankfurt Main Airport (EDDF) |
| Time | Latitude | Longitude | Altitude | Speed | Heading |
|---|---|---|---|---|---|
| 2026-04-16 21:00 | 45.62852 | 8.71589 | 710 ft | 1 kts | 170° |
| 2026-04-16 21:14 | 45.62865 | 8.71585 | 737 ft | 3 kts | 168° |
| 2026-04-16 21:14 | 45.62885 | 8.71579 | 738 ft | 3 kts | 165° |
| 2026-04-16 21:14 | 45.62904 | 8.71571 | 737 ft | 3 kts | 158° |
| 2026-04-16 21:14 | 45.62922 | 8.71558 | 738 ft | 3 kts | 142° |
| 2026-04-16 21:15 | 45.62934 | 8.71540 | 739 ft | 3 kts | 101° |
| 2026-04-16 21:15 | 45.62935 | 8.71529 | 739 ft | 0 kts | 79° |
| 2026-04-16 21:20 | 45.62944 | 8.71587 | 739 ft | 8 kts | 78° |
| 2026-04-16 21:20 | 45.62949 | 8.71622 | 739 ft | 0 kts | 78° |
| 2026-04-16 21:20 | 45.62950 | 8.71633 | 740 ft | 7 kts | 78° |
| 2026-04-16 21:21 | 45.62956 | 8.71668 | 740 ft | 0 kts | 78° |
| 2026-04-16 21:21 | 45.62958 | 8.71687 | 739 ft | 7 kts | 78° |
| 2026-04-16 21:21 | 45.62972 | 8.71778 | 738 ft | 17 kts | 77° |
| 2026-04-16 21:21 | 45.62967 | 8.71938 | 739 ft | 15 kts | 139° |
| 2026-04-16 21:22 | 45.62859 | 8.71977 | 737 ft | 18 kts | 168° |
| 2026-04-16 21:22 | 45.62752 | 8.72007 | 735 ft | 10 kts | 170° |
| 2026-04-16 21:22 | 45.62688 | 8.72023 | 734 ft | 21 kts | 170° |
| 2026-04-16 21:22 | 45.62525 | 8.72068 | 730 ft | 26 kts | 168° |
| 2026-04-16 21:23 | 45.62354 | 8.72112 | 727 ft | 25 kts | 169° |
| 2026-04-16 21:23 | 45.62173 | 8.72168 | 724 ft | 28 kts | 169° |
| 2026-04-16 21:23 | 45.61974 | 8.72221 | 720 ft | 27 kts | 169° |
| 2026-04-16 21:23 | 45.61820 | 8.72262 | 717 ft | 24 kts | 169° |
| 2026-04-16 21:24 | 45.61644 | 8.72310 | 715 ft | 27 kts | 169° |
| 2026-04-16 21:24 | 45.61452 | 8.72364 | 703 ft | 26 kts | 169° |
| 2026-04-16 21:24 | 45.61333 | 8.72507 | 693 ft | 21 kts | 154° |
| 2026-04-16 21:24 | 45.61217 | 8.72543 | 700 ft | 17 kts | 171° |
| 2026-04-16 21:25 | 45.61105 | 8.72579 | 695 ft | 11 kts | 133° |
| 2026-04-16 21:25 | 45.61100 | 8.72587 | 691 ft | 2 kts | 130° |
| 2026-04-16 21:25 | 45.61081 | 8.72680 | 698 ft | 12 kts | 81° |
| 2026-04-16 21:25 | 45.61104 | 8.72829 | 695 ft | 17 kts | 79° |
| 2026-04-16 21:26 | 45.61127 | 8.73004 | 698 ft | 19 kts | 79° |
| 2026-04-16 21:26 | 45.61207 | 8.73118 | 695 ft | 17 kts | 36° |
| 2026-04-16 21:26 | 45.61307 | 8.73212 | 696 ft | 18 kts | 33° |
| 2026-04-16 21:26 | 45.61420 | 8.73265 | 700 ft | 18 kts | 347° |
| 2026-04-16 21:27 | 45.61541 | 8.73227 | 700 ft | 18 kts | 349° |
| 2026-04-16 21:27 | 45.61622 | 8.73284 | 701 ft | 15 kts | 81° |
| 2026-04-16 21:27 | 45.61633 | 8.73437 | 698 ft | 16 kts | 110° |
| 2026-04-16 21:27 | 45.61588 | 8.73568 | 699 ft | 10 kts | 100° |
| 2026-04-16 21:28 | 45.61587 | 8.73582 | 697 ft | 0 kts | 96° |
| 2026-04-16 21:28 | 45.61588 | 8.73639 | 702 ft | 10 kts | 83° |
| 2026-04-16 21:28 | 45.61624 | 8.73727 | 701 ft | 13 kts | 25° |
| 2026-04-16 21:28 | 45.61653 | 8.73732 | 702 ft | 0 kts | 352° |
| 2026-04-16 21:29 | 45.61874 | 8.73665 | 706 ft | 75 kts | 351° |
| 2026-04-16 21:29 | 45.62664 | 8.73449 | 737 ft | 148 kts | 348° |
| 2026-04-16 21:29 | 45.63727 | 8.73196 | 1319 ft | 160 kts | 353° |
| 2026-04-16 21:30 | 45.64875 | 8.73273 | 2058 ft | 175 kts | 22° |
| 2026-04-16 21:30 | 45.65748 | 8.74419 | 2931 ft | 172 kts | 70° |
| 2026-04-16 21:30 | 45.65986 | 8.76046 | 3686 ft | 168 kts | 77° |
| 2026-04-16 21:30 | 45.66624 | 8.77456 | 4159 ft | 178 kts | 40° |
| 2026-04-16 21:31 | 45.67666 | 8.78555 | 4530 ft | 196 kts | 33° |
| 2026-04-16 21:31 | 45.68853 | 8.79688 | 4937 ft | 214 kts | 33° |
| 2026-04-16 21:31 | 45.70094 | 8.80913 | 5644 ft | 217 kts | 35° |
| 2026-04-16 21:31 | 45.71319 | 8.82192 | 6438 ft | 219 kts | 37° |
| 2026-04-16 21:32 | 45.72426 | 8.83756 | 6991 ft | 232 kts | 63° |
| 2026-04-16 21:32 | 45.72685 | 8.86024 | 7593 ft | 240 kts | 103° |
| 2026-04-16 21:32 | 45.71902 | 8.88118 | 8320 ft | 245 kts | 130° |
| 2026-04-16 21:32 | 45.70802 | 8.90026 | 9064 ft | 251 kts | 128° |
| 2026-04-16 21:33 | 45.69739 | 8.92021 | 9897 ft | 254 kts | 126° |
| 2026-04-16 21:33 | 45.68681 | 8.94078 | 10682 ft | 258 kts | 126° |
| 2026-04-16 21:33 | 45.67619 | 8.96168 | 11427 ft | 262 kts | 126° |
| 2026-04-16 21:33 | 45.66543 | 8.98293 | 12179 ft | 266 kts | 126° |
| 2026-04-16 21:34 | 45.65489 | 9.00479 | 12937 ft | 269 kts | 118° |
| 2026-04-16 21:34 | 45.64899 | 9.02438 | 13531 ft | 271 kts | 105° |
| 2026-04-16 21:34 | 45.64594 | 9.05152 | 14036 ft | 284 kts | 89° |
| 2026-04-16 21:34 | 45.64630 | 9.08060 | 14391 ft | 301 kts | 88° |
| 2026-04-16 21:35 | 45.64662 | 9.11134 | 14737 ft | 318 kts | 88° |
| 2026-04-16 21:35 | 45.64686 | 9.14377 | 15064 ft | 335 kts | 88° |
| 2026-04-16 21:35 | 45.64706 | 9.17783 | 15368 ft | 351 kts | 88° |
| 2026-04-16 21:35 | 45.64722 | 9.21355 | 15644 ft | 368 kts | 89° |
| 2026-04-16 21:36 | 45.64735 | 9.25092 | 15987 ft | 381 kts | 89° |
| 2026-04-16 21:36 | 45.64746 | 9.28902 | 16566 ft | 387 kts | 89° |
| 2026-04-16 21:36 | 45.64757 | 9.32775 | 17199 ft | 391 kts | 88° |
| 2026-04-16 21:36 | 45.64769 | 9.36679 | 17818 ft | 395 kts | 88° |
| 2026-04-16 21:37 | 45.64782 | 9.40635 | 18429 ft | 400 kts | 88° |
| 2026-04-16 21:37 | 45.64793 | 9.44627 | 18966 ft | 404 kts | 88° |
| 2026-04-16 21:37 | 45.64806 | 9.48660 | 19518 ft | 408 kts | 88° |
| 2026-04-16 21:37 | 45.64821 | 9.52735 | 20071 ft | 411 kts | 88° |
| 2026-04-16 21:38 | 45.64831 | 9.56838 | 20626 ft | 415 kts | 88° |
| 2026-04-16 21:38 | 45.64841 | 9.60980 | 21163 ft | 418 kts | 87° |
| 2026-04-16 21:38 | 45.65307 | 9.65053 | 21708 ft | 415 kts | 66° |
| 2026-04-16 21:38 | 45.66814 | 9.68577 | 22238 ft | 411 kts | 43° |
| 2026-04-16 21:39 | 45.69074 | 9.70908 | 22716 ft | 406 kts | 21° |
| 2026-04-16 21:39 | 45.71829 | 9.71798 | 23191 ft | 402 kts | 358° |
| 2026-04-16 21:39 | 45.74556 | 9.71056 | 23659 ft | 400 kts | 335° |
| 2026-04-16 21:39 | 45.76837 | 9.68829 | 24054 ft | 400 kts | 313° |
| 2026-04-16 21:40 | 45.78314 | 9.65468 | 24438 ft | 404 kts | 290° |
| 2026-04-16 21:40 | 45.78810 | 9.61493 | 24800 ft | 410 kts | 275° |
| 2026-04-16 21:40 | 45.78978 | 9.57398 | 25105 ft | 414 kts | 275° |
| 2026-04-16 21:40 | 45.79148 | 9.53265 | 25455 ft | 417 kts | 275° |
| 2026-04-16 21:41 | 45.79409 | 9.49126 | 25806 ft | 418 kts | 283° |
| 2026-04-16 21:41 | 45.80287 | 9.45173 | 26170 ft | 417 kts | 293° |
| 2026-04-16 21:41 | 45.81364 | 9.41292 | 26492 ft | 420 kts | 295° |
| 2026-04-16 21:41 | 45.82856 | 9.37705 | 26832 ft | 420 kts | 307° |
| 2026-04-16 21:42 | 45.84574 | 9.34309 | 27151 ft | 422 kts | 307° |
| 2026-04-16 21:42 | 45.86319 | 9.30906 | 27435 ft | 425 kts | 308° |
| 2026-04-16 21:42 | 45.88077 | 9.27493 | 27756 ft | 427 kts | 308° |
| 2026-04-16 21:42 | 45.89839 | 9.24055 | 28072 ft | 428 kts | 308° |
| 2026-04-16 21:43 | 45.91603 | 9.20597 | 28386 ft | 430 kts | 307° |
| 2026-04-16 21:43 | 45.93369 | 9.17122 | 28707 ft | 432 kts | 307° |
| 2026-04-16 21:43 | 45.95140 | 9.13620 | 29015 ft | 434 kts | 307° |
| 2026-04-16 21:43 | 45.96907 | 9.10110 | 29247 ft | 435 kts | 307° |
| 2026-04-16 21:44 | 45.98683 | 9.06579 | 29514 ft | 437 kts | 307° |
| 2026-04-16 21:44 | 46.00477 | 9.03042 | 29774 ft | 438 kts | 308° |
| 2026-04-16 21:44 | 46.02275 | 8.99495 | 29981 ft | 439 kts | 308° |
| 2026-04-16 21:44 | 46.04079 | 8.95932 | 30212 ft | 441 kts | 308° |
| 2026-04-16 21:45 | 46.05888 | 8.92357 | 30458 ft | 441 kts | 308° |
| 2026-04-16 21:45 | 46.07693 | 8.88793 | 30745 ft | 440 kts | 308° |
| 2026-04-16 21:45 | 46.09492 | 8.85247 | 31048 ft | 438 kts | 308° |
| 2026-04-16 21:45 | 46.11287 | 8.81714 | 31356 ft | 436 kts | 308° |
| 2026-04-16 21:46 | 46.13077 | 8.78191 | 31674 ft | 435 kts | 308° |
| 2026-04-16 21:46 | 46.14926 | 8.74756 | 31980 ft | 432 kts | 315° |
| 2026-04-16 21:46 | 46.17257 | 8.72093 | 32141 ft | 429 kts | 331° |
| 2026-04-16 21:46 | 46.20025 | 8.70542 | 32167 ft | 425 kts | 347° |
| 2026-04-16 21:47 | 46.22964 | 8.70171 | 32166 ft | 428 kts | 2° |
| 2026-04-16 21:47 | 46.25888 | 8.71024 | 32168 ft | 433 kts | 18° |
| 2026-04-16 21:47 | 46.28563 | 8.73068 | 32167 ft | 439 kts | 34° |
| 2026-04-16 21:47 | 46.30744 | 8.76196 | 32166 ft | 448 kts | 51° |
| 2026-04-16 21:48 | 46.32406 | 8.80040 | 32169 ft | 451 kts | 56° |
| 2026-04-16 21:48 | 46.35081 | 8.86525 | 32167 ft | 451 kts | 55° |
| 2026-04-16 21:49 | 46.38935 | 8.93515 | 32157 ft | 440 kts | 33° |
| 2026-04-16 21:49 | 46.41545 | 8.95729 | 32155 ft | 433 kts | 18° |
| 2026-04-16 21:49 | 46.44430 | 8.96845 | 32156 ft | 427 kts | 4° |
| 2026-04-16 21:50 | 46.50333 | 8.96554 | 32166 ft | 425 kts | 354° |
| 2026-04-16 21:50 | 46.56235 | 8.95965 | 32192 ft | 425 kts | 354° |
| 2026-04-16 21:51 | 46.62131 | 8.95414 | 32196 ft | 425 kts | 354° |
| 2026-04-16 21:51 | 46.68009 | 8.94863 | 32219 ft | 425 kts | 354° |
| 2026-04-16 21:52 | 46.73900 | 8.94290 | 32222 ft | 424 kts | 354° |
| 2026-04-16 21:52 | 46.79795 | 8.93714 | 32222 ft | 424 kts | 354° |
| 2026-04-16 21:53 | 46.85685 | 8.93137 | 32230 ft | 424 kts | 354° |
| 2026-04-16 21:53 | 46.91502 | 8.92573 | 32235 ft | 424 kts | 354° |
| 2026-04-16 21:54 | 46.97396 | 8.92011 | 32228 ft | 424 kts | 354° |
| 2026-04-16 21:54 | 47.03286 | 8.91440 | 32241 ft | 424 kts | 353° |
| 2026-04-16 21:55 | 47.09177 | 8.90860 | 32236 ft | 424 kts | 353° |
| 2026-04-16 21:55 | 47.15069 | 8.90287 | 32237 ft | 425 kts | 353° |
| 2026-04-16 21:56 | 47.21011 | 8.89708 | 32248 ft | 425 kts | 353° |
| 2026-04-16 21:56 | 47.26907 | 8.89124 | 32251 ft | 425 kts | 353° |
| 2026-04-16 21:57 | 47.32829 | 8.89180 | 32253 ft | 427 kts | 359° |
| 2026-04-16 21:57 | 47.38762 | 8.89617 | 32257 ft | 427 kts | 359° |
| 2026-04-16 21:58 | 47.44704 | 8.90051 | 32253 ft | 427 kts | 359° |
| 2026-04-16 21:58 | 47.50644 | 8.90479 | 32254 ft | 427 kts | 359° |
| 2026-04-16 21:59 | 47.56575 | 8.90906 | 32259 ft | 427 kts | 359° |
| 2026-04-16 21:59 | 47.62511 | 8.91338 | 32262 ft | 427 kts | 359° |
| 2026-04-16 22:00 | 47.68458 | 8.91778 | 32265 ft | 431 kts | 359° |
| 2026-04-16 22:00 | 47.74532 | 8.92221 | 32252 ft | 442 kts | 359° |
| 2026-04-16 22:01 | 47.80714 | 8.92671 | 32256 ft | 448 kts | 359° |
| 2026-04-16 22:01 | 47.86962 | 8.93123 | 32246 ft | 451 kts | 359° |
| 2026-04-16 22:02 | 47.93251 | 8.93589 | 32252 ft | 453 kts | 359° |
| 2026-04-16 22:02 | 47.99567 | 8.94052 | 32254 ft | 455 kts | 359° |
| 2026-04-16 22:03 | 48.05907 | 8.94527 | 32253 ft | 457 kts | 359° |
| 2026-04-16 22:03 | 48.12278 | 8.95005 | 32253 ft | 459 kts | 359° |
| 2026-04-16 22:04 | 48.18524 | 8.95528 | 32253 ft | 431 kts | 0° |
| 2026-04-16 22:04 | 48.24448 | 8.96381 | 32254 ft | 430 kts | 2° |
| 2026-04-16 22:05 | 48.30393 | 8.97378 | 32256 ft | 430 kts | 2° |
| 2026-04-16 22:05 | 48.36338 | 8.98334 | 32261 ft | 430 kts | 1° |
| 2026-04-16 22:06 | 48.42287 | 8.99232 | 32249 ft | 429 kts | 1° |
| 2026-04-16 22:06 | 48.51219 | 9.00569 | 32246 ft | 430 kts | 1° |
| 2026-04-16 22:07 | 48.57176 | 9.01477 | 32241 ft | 430 kts | 1° |
| 2026-04-16 22:07 | 48.63131 | 9.02396 | 32241 ft | 431 kts | 2° |
| 2026-04-16 22:08 | 48.69116 | 9.03655 | 32192 ft | 438 kts | 5° |
| 2026-04-16 22:08 | 48.75145 | 9.05211 | 32212 ft | 439 kts | 5° |
| 2026-04-16 22:09 | 48.81170 | 9.06755 | 32221 ft | 439 kts | 5° |
| 2026-04-16 22:09 | 48.87204 | 9.08214 | 32229 ft | 439 kts | 4° |
| 2026-04-16 22:10 | 48.93246 | 9.09367 | 32236 ft | 437 kts | 0° |
| 2026-04-16 22:10 | 48.99333 | 9.10120 | 31217 ft | 445 kts | 360° |
| 2026-04-16 22:11 | 49.02448 | 9.10481 | 29793 ft | 451 kts | 0° |
| 2026-04-16 22:11 | 49.05603 | 9.10868 | 28144 ft | 458 kts | 1° |
| 2026-04-16 22:11 | 49.08795 | 9.11292 | 26500 ft | 463 kts | 1° |
| 2026-04-16 22:11 | 49.12023 | 9.11749 | 24886 ft | 469 kts | 2° |
| 2026-04-16 22:12 | 49.15260 | 9.12230 | 23837 ft | 464 kts | 2° |
| 2026-04-16 22:12 | 49.18442 | 9.12714 | 22890 ft | 456 kts | 2° |
| 2026-04-16 22:12 | 49.21573 | 9.13187 | 21932 ft | 449 kts | 2° |
| 2026-04-16 22:12 | 49.24668 | 9.13642 | 21020 ft | 444 kts | 2° |
| 2026-04-16 22:13 | 49.27725 | 9.14094 | 20143 ft | 440 kts | 4° |
| 2026-04-16 22:13 | 49.30723 | 9.14989 | 19370 ft | 437 kts | 10° |
| 2026-04-16 22:13 | 49.33637 | 9.16017 | 18991 ft | 423 kts | 10° |
| 2026-04-16 22:13 | 49.36469 | 9.17028 | 18365 ft | 412 kts | 10° |
| 2026-04-16 22:14 | 49.39251 | 9.18021 | 17286 ft | 406 kts | 10° |
| 2026-04-16 22:14 | 49.41976 | 9.18991 | 16050 ft | 399 kts | 11° |
| 2026-04-16 22:14 | 49.44665 | 9.19946 | 14886 ft | 393 kts | 11° |
| 2026-04-16 22:14 | 49.47310 | 9.20883 | 13712 ft | 387 kts | 11° |
| 2026-04-16 22:15 | 49.49915 | 9.21804 | 12448 ft | 381 kts | 11° |
| 2026-04-16 22:15 | 49.52477 | 9.22711 | 11253 ft | 374 kts | 11° |
| 2026-04-16 22:15 | 49.54950 | 9.23589 | 10637 ft | 355 kts | 12° |
| 2026-04-16 22:15 | 49.57353 | 9.24446 | 10406 ft | 354 kts | 12° |
| 2026-04-16 22:16 | 49.59736 | 9.25300 | 10261 ft | 343 kts | 12° |
| 2026-04-16 22:16 | 49.61761 | 9.26029 | 10220 ft | 316 kts | 12° |
| 2026-04-16 22:16 | 49.63837 | 9.26777 | 10234 ft | 297 kts | 12° |
| 2026-04-16 22:16 | 49.65816 | 9.27490 | 10233 ft | 291 kts | 11° |
| 2026-04-16 22:17 | 49.67790 | 9.28195 | 10233 ft | 291 kts | 11° |
| 2026-04-16 22:17 | 49.69709 | 9.28886 | 10244 ft | 275 kts | 11° |
| 2026-04-16 22:17 | 49.71517 | 9.29539 | 10235 ft | 259 kts | 11° |
| 2026-04-16 22:17 | 49.73217 | 9.30151 | 10205 ft | 245 kts | 11° |
| 2026-04-16 22:18 | 49.74848 | 9.30736 | 10051 ft | 236 kts | 11° |
| 2026-04-16 22:18 | 49.76455 | 9.31311 | 9969 ft | 237 kts | 11° |
| 2026-04-16 22:18 | 49.78061 | 9.31886 | 9895 ft | 237 kts | 11° |
| 2026-04-16 22:18 | 49.79666 | 9.32461 | 9824 ft | 237 kts | 11° |
| 2026-04-16 22:19 | 49.81270 | 9.33037 | 9760 ft | 237 kts | 11° |
| 2026-04-16 22:19 | 49.82884 | 9.33491 | 9696 ft | 235 kts | 359° |
| 2026-04-16 22:19 | 49.84482 | 9.33151 | 9624 ft | 231 kts | 338° |
| 2026-04-16 22:19 | 49.85886 | 9.31991 | 9559 ft | 228 kts | 319° |
| 2026-04-16 22:20 | 49.86941 | 9.30182 | 9494 ft | 226 kts | 300° |
| 2026-04-16 22:20 | 49.87549 | 9.27955 | 9428 ft | 225 kts | 284° |
| 2026-04-16 22:20 | 49.87983 | 9.25625 | 9363 ft | 225 kts | 285° |
| 2026-04-16 22:20 | 49.88425 | 9.23303 | 9305 ft | 225 kts | 285° |
| 2026-04-16 22:21 | 49.88871 | 9.20978 | 9245 ft | 225 kts | 286° |
| 2026-04-16 22:21 | 49.89318 | 9.18661 | 9175 ft | 224 kts | 286° |
| 2026-04-16 22:21 | 49.89764 | 9.16340 | 9112 ft | 224 kts | 285° |
| 2026-04-16 22:21 | 49.90207 | 9.14023 | 9048 ft | 224 kts | 285° |
| 2026-04-16 22:22 | 49.90646 | 9.11709 | 8983 ft | 224 kts | 285° |
| 2026-04-16 22:22 | 49.91086 | 9.09394 | 8921 ft | 224 kts | 285° |
| 2026-04-16 22:22 | 49.91524 | 9.07080 | 8869 ft | 224 kts | 285° |
| 2026-04-16 22:22 | 49.91962 | 9.04764 | 8801 ft | 224 kts | 285° |
| 2026-04-16 22:23 | 49.92402 | 9.02448 | 8728 ft | 224 kts | 285° |
| 2026-04-16 22:23 | 49.92841 | 9.00141 | 8642 ft | 223 kts | 285° |
| 2026-04-16 22:23 | 49.93276 | 8.97831 | 8596 ft | 223 kts | 285° |
| 2026-04-16 22:23 | 49.93785 | 8.95558 | 8541 ft | 223 kts | 297° |
| 2026-04-16 22:24 | 49.94695 | 8.93615 | 8483 ft | 225 kts | 315° |
| 2026-04-16 22:24 | 49.95963 | 8.92197 | 8413 ft | 227 kts | 333° |
| 2026-04-16 22:24 | 49.97470 | 8.91467 | 8348 ft | 229 kts | 351° |
| 2026-04-16 22:24 | 49.99065 | 8.91443 | 8280 ft | 230 kts | 1° |
| 2026-04-16 22:25 | 50.00646 | 8.91847 | 8203 ft | 232 kts | 17° |
| 2026-04-16 22:25 | 50.02094 | 8.92938 | 8134 ft | 233 kts | 34° |
| 2026-04-16 22:25 | 50.03299 | 8.94633 | 8061 ft | 235 kts | 50° |
| 2026-04-16 22:25 | 50.04154 | 8.96789 | 7988 ft | 235 kts | 67° |
| 2026-04-16 22:26 | 50.04719 | 8.99184 | 7758 ft | 240 kts | 70° |
| 2026-04-16 22:26 | 50.05300 | 9.01686 | 7165 ft | 251 kts | 70° |
| 2026-04-16 22:26 | 50.05912 | 9.04301 | 6479 ft | 263 kts | 70° |
| 2026-04-16 22:26 | 50.06551 | 9.07024 | 5750 ft | 274 kts | 70° |
| 2026-04-16 22:27 | 50.06996 | 9.08921 | 5389 ft | 276 kts | 70° |
| 2026-04-16 22:27 | 50.07659 | 9.11650 | 5237 ft | 262 kts | 63° |
| 2026-04-16 22:27 | 50.08690 | 9.13825 | 5230 ft | 241 kts | 40° |
| 2026-04-16 22:27 | 50.10039 | 9.15144 | 5231 ft | 221 kts | 19° |
| 2026-04-16 22:28 | 50.11521 | 9.15635 | 5137 ft | 219 kts | 359° |
| 2026-04-16 22:28 | 50.12987 | 9.15310 | 5045 ft | 207 kts | 339° |
| 2026-04-16 22:28 | 50.14217 | 9.14324 | 4986 ft | 194 kts | 320° |
| 2026-04-16 22:28 | 50.15167 | 9.12846 | 5000 ft | 193 kts | 303° |
| 2026-04-16 22:29 | 50.15783 | 9.11008 | 5001 ft | 192 kts | 286° |
| 2026-04-16 22:29 | 50.16015 | 9.08974 | 4993 ft | 191 kts | 270° |
| 2026-04-16 22:29 | 50.15869 | 9.06920 | 4991 ft | 191 kts | 259° |
| 2026-04-16 22:29 | 50.15643 | 9.04880 | 4995 ft | 191 kts | 260° |
| 2026-04-16 22:30 | 50.15424 | 9.02840 | 4999 ft | 191 kts | 260° |
| 2026-04-16 22:30 | 50.15206 | 9.00792 | 5000 ft | 191 kts | 260° |
| 2026-04-16 22:30 | 50.15021 | 8.98742 | 4996 ft | 191 kts | 262° |
| 2026-04-16 22:30 | 50.14749 | 8.96720 | 4996 ft | 191 kts | 254° |
| 2026-04-16 22:31 | 50.14347 | 8.94747 | 5006 ft | 191 kts | 251° |
| 2026-04-16 22:31 | 50.13904 | 8.92795 | 5005 ft | 191 kts | 250° |
| 2026-04-16 22:31 | 50.13452 | 8.90851 | 4997 ft | 191 kts | 250° |
| 2026-04-16 22:31 | 50.12996 | 8.88906 | 4995 ft | 191 kts | 250° |
| 2026-04-16 22:32 | 50.12548 | 8.87001 | 4867 ft | 183 kts | 250° |
| 2026-04-16 22:32 | 50.12122 | 8.85186 | 4645 ft | 173 kts | 250° |
| 2026-04-16 22:32 | 50.11716 | 8.83463 | 4423 ft | 167 kts | 250° |
| 2026-04-16 22:32 | 50.11315 | 8.81761 | 4195 ft | 167 kts | 250° |
| 2026-04-16 22:33 | 50.10915 | 8.80064 | 3974 ft | 167 kts | 250° |
| 2026-04-16 22:33 | 50.10514 | 8.78364 | 3758 ft | 167 kts | 250° |
| 2026-04-16 22:33 | 50.10115 | 8.76673 | 3537 ft | 166 kts | 250° |
| 2026-04-16 22:33 | 50.09716 | 8.74984 | 3316 ft | 166 kts | 250° |
| 2026-04-16 22:34 | 50.09318 | 8.73301 | 3095 ft | 164 kts | 249° |
| 2026-04-16 22:34 | 50.08932 | 8.71672 | 2894 ft | 154 kts | 249° |
| 2026-04-16 22:34 | 50.08577 | 8.70173 | 2682 ft | 141 kts | 249° |
| 2026-04-16 22:34 | 50.08240 | 8.68749 | 2493 ft | 140 kts | 249° |
| 2026-04-16 22:35 | 50.07902 | 8.67329 | 2304 ft | 140 kts | 248° |
| 2026-04-16 22:35 | 50.07568 | 8.65913 | 2111 ft | 139 kts | 249° |
| 2026-04-16 22:35 | 50.07241 | 8.64495 | 1942 ft | 139 kts | 249° |
| 2026-04-16 22:35 | 50.06904 | 8.63087 | 1766 ft | 139 kts | 248° |
| 2026-04-16 22:36 | 50.06566 | 8.61688 | 1523 ft | 138 kts | 249° |
| 2026-04-16 22:36 | 50.06230 | 8.60291 | 1328 ft | 138 kts | 249° |
| 2026-04-16 22:36 | 50.05895 | 8.58896 | 1107 ft | 137 kts | 250° |
| 2026-04-16 22:36 | 50.05563 | 8.57504 | 959 ft | 137 kts | 250° |
| 2026-04-16 22:37 | 50.05233 | 8.56110 | 784 ft | 137 kts | 250° |
| 2026-04-16 22:37 | 50.04906 | 8.54714 | 588 ft | 137 kts | 251° |
| 2026-04-16 22:37 | 50.04572 | 8.53322 | 395 ft | 137 kts | 250° |
| 2026-04-16 22:37 | 50.04255 | 8.52013 | 347 ft | 111 kts | 249° |
| 2026-04-16 22:38 | 50.04055 | 8.51189 | 333 ft | 42 kts | 252° |
| 2026-04-16 22:38 | 50.03915 | 8.50940 | 330 ft | 30 kts | 223° |
| 2026-04-16 22:38 | 50.03831 | 8.50845 | 328 ft | 0 kts | 192° |
| 2026-04-16 22:38 | 50.03789 | 8.50878 | 329 ft | 7 kts | 130° |
| 2026-04-16 22:39 | 50.03786 | 8.50882 | 329 ft | 3 kts | 129° |
| 2026-04-16 22:39 | 50.03753 | 8.50974 | 332 ft | 12 kts | 113° |
| 2026-04-16 22:39 | 50.03721 | 8.51071 | 335 ft | 10 kts | 118° |
| 2026-04-16 22:39 | 50.03684 | 8.51182 | 339 ft | 10 kts | 116° |
| 2026-04-16 22:40 | 50.03663 | 8.51251 | 346 ft | 4 kts | 115° |
| 2026-04-16 22:40 | 50.03645 | 8.51309 | 353 ft | 6 kts | 115° |
| 2026-04-16 22:40 | 50.03619 | 8.51392 | 357 ft | 11 kts | 116° |
| 2026-04-16 22:40 | 50.03576 | 8.51530 | 359 ft | 18 kts | 114° |
| 2026-04-16 22:41 | 50.03520 | 8.51715 | 361 ft | 17 kts | 105° |
| 2026-04-16 22:41 | 50.03521 | 8.51932 | 352 ft | 23 kts | 82° |
| 2026-04-16 22:41 | 50.03539 | 8.52162 | 348 ft | 18 kts | 82° |
| 2026-04-16 22:41 | 50.03561 | 8.52356 | 349 ft | 19 kts | 73° |
| 2026-04-16 22:42 | 50.03597 | 8.52559 | 352 ft | 20 kts | 89° |
| 2026-04-16 22:42 | 50.03633 | 8.52784 | 347 ft | 20 kts | 79° |
| 2026-04-16 22:42 | 50.03584 | 8.52927 | 353 ft | 15 kts | 102° |
| 2026-04-16 22:42 | 50.03618 | 8.53103 | 337 ft | 20 kts | 67° |
| 2026-04-16 22:43 | 50.03673 | 8.53325 | 335 ft | 23 kts | 68° |
| 2026-04-16 22:43 | 50.03701 | 8.53544 | 337 ft | 16 kts | 135° |
| 2026-04-16 22:43 | 50.03673 | 8.53691 | 338 ft | 16 kts | 69° |
| 2026-04-16 22:43 | 50.03713 | 8.53846 | 348 ft | 15 kts | 70° |
| 2026-04-16 22:44 | 50.03749 | 8.54009 | 348 ft | 17 kts | 70° |
| 2026-04-16 22:44 | 50.03790 | 8.54179 | 351 ft | 15 kts | 65° |
| 2026-04-16 22:44 | 50.03834 | 8.54302 | 349 ft | 14 kts | 64° |
| 2026-04-16 22:44 | 50.03883 | 8.54447 | 352 ft | 16 kts | 69° |
| 2026-04-16 22:45 | 50.03923 | 8.54617 | 350 ft | 18 kts | 69° |
| 2026-04-16 22:45 | 50.03967 | 8.54809 | 357 ft | 19 kts | 69° |
| 2026-04-16 22:45 | 50.04011 | 8.54973 | 361 ft | 13 kts | 73° |
| 2026-04-16 22:45 | 50.04041 | 8.55120 | 356 ft | 15 kts | 69° |
| 2026-04-16 22:46 | 50.04080 | 8.55272 | 356 ft | 16 kts | 69° |
| 2026-04-16 22:46 | 50.04121 | 8.55449 | 355 ft | 19 kts | 72° |
| 2026-04-16 22:46 | 50.04169 | 8.55652 | 363 ft | 20 kts | 70° |
| 2026-04-16 22:46 | 50.04224 | 8.55874 | 355 ft | 23 kts | 69° |
| 2026-04-16 22:47 | 50.04275 | 8.56050 | 356 ft | 17 kts | 44° |
| 2026-04-16 22:47 | 50.04380 | 8.56036 | 360 ft | 16 kts | 340° |
| 2026-04-16 22:47 | 50.04451 | 8.56106 | 360 ft | 14 kts | 68° |
| 2026-04-16 22:47 | 50.04444 | 8.56203 | 363 ft | 8 kts | 154° |
| 2026-04-16 22:48 | 50.04410 | 8.56219 | 357 ft | 0 kts | 159° |